首页
METAR-TAF:

METAR-TAF

机场 :

阿什维尔, 北卡罗来纳州, 美国

纬度: 35-25-55N, 经度: 082-32-15W, 海拔: 660米

当前天气观测

该预报发布于36分钟前的08:54 UTC
风速3节,风向西南
温度 17°C
湿度 94%
气压 1019 hPa
能見度: 14.5公里
天空无云

METAR: KAVL 190854Z AUTO 23003KT 9SM CLR 17/16 A3009 RMK AO2 SLP164 T01720156 58009

时间: 05:30 (09:30 UTC)

预报

该预报发布于3小时和53分钟前的05:37 UTC
预报有效从19日的 06点(UTC)到 20日的 06点(UTC)
风速3节,风向多变
能見度: 10公里
散云层高于25000英尺
从 19日的 1700点(UTC)
风速7节,风向西南
能見度: 10公里
多云层高于5000英尺
几率 30%
从 19日的 19点(UTC)到 19日的 24点(UTC)
能見度: 6.4公里
阴天层高于2500英尺, 积雨云.
雷暴, 雨, 轻雾
从 20日的 0100点(UTC)
风速6节,风向
能見度: 10公里
阴天层高于2700英尺
从 20日的 0200点(UTC)
风速3节,风向
能見度: 10公里
阴天层高于1500英尺
从 20日的 0400点(UTC)
风速2节,风向多变
能見度: 8.0公里
多云层高于800英尺
轻雾

TAF: KAVL 190537Z 1906/2006 VRB03KT P6SM SCT250 FM191700 22007KT P6SM BKN050 PROB30 1919/1924 4SM TSRA BR OVC025CB FM200100 18006KT P6SM OVC027 FM200200 18003KT P6SM OVC015 FM200400 VRB02KT 5SM BR BKN008

超过4000个机场的气象观测和天气预报(METAR&TAF报告)。

可查询的气象台以黄色和红色小点在地图上表示。

将鼠标移到小点上方,可查看气象台名称。

然后点击查看天气观测和预报。

如需切换地图:点击带黑十字的绿色按钮放大地图;点击带横线的绿色按钮缩小地图;或者点击绿色箭头查看邻近地区的地图。


METAR-TAF: